sensor_id;sensor_type;location;lat;lon;timestamp;P1;durP1;ratioP1;P2;durP2;ratioP2
69736;SDS011;64476;55.004;73.342;2022-11-20T08:05:52;9.55;;;5.72;;
69736;SDS011;64476;55.004;73.342;2022-11-20T08:08:29;10.02;;;5.95;;
69736;SDS011;64476;55.004;73.342;2022-11-20T08:13:55;10.73;;;5.80;;
69736;SDS011;64476;55.004;73.342;2022-11-20T08:17:01;10.25;;;5.10;;
69736;SDS011;64476;55.004;73.342;2022-11-20T08:20:07;8.27;;;4.85;;
69736;SDS011;64476;55.004;73.342;2022-11-20T08:22:44;11.05;;;5.43;;
69736;SDS011;64476;55.004;73.342;2022-11-20T08:25:24;9.20;;;4.80;;
69736;SDS011;64476;55.004;73.342;2022-11-20T08:27:57;8.32;;;5.55;;
69736;SDS011;64476;55.004;73.342;2022-11-20T08:30:25;8.45;;;4.88;;
69736;SDS011;64476;55.004;73.342;2022-11-20T08:32:52;9.35;;;5.00;;
69736;SDS011;64476;55.004;73.342;2022-11-20T08:35:20;6.28;;;4.45;;
69736;SDS011;64476;55.004;73.342;2022-11-20T08:38:20;11.15;;;5.30;;
69736;SDS011;64476;55.004;73.342;2022-11-20T08:40:50;11.13;;;5.13;;
69736;SDS011;64476;55.004;73.342;2022-11-20T08:43:35;10.90;;;5.18;;
69736;SDS011;64476;55.004;73.342;2022-11-20T08:46:02;6.63;;;5.22;;
69736;SDS011;64476;55.004;73.342;2022-11-20T08:48:28;17.05;;;5.45;;
69736;SDS011;64476;55.004;73.342;2022-11-20T08:50:57;11.25;;;5.35;;
69736;SDS011;64476;55.004;73.342;2022-11-20T08:53:30;8.80;;;5.47;;
69736;SDS011;64476;55.004;73.342;2022-11-20T08:56:00;9.07;;;5.68;;
69736;SDS011;64476;55.004;73.342;2022-11-20T08:58:28;9.68;;;5.55;;
69736;SDS011;64476;55.004;73.342;2022-11-20T09:00:54;19.48;;;6.68;;
69736;SDS011;64476;55.004;73.342;2022-11-20T09:03:21;14.90;;;5.90;;
69736;SDS011;64476;55.004;73.342;2022-11-20T09:05:48;11.57;;;6.05;;
69736;SDS011;64476;55.004;73.342;2022-11-20T09:08:19;13.75;;;5.97;;
69736;SDS011;64476;55.004;73.342;2022-11-20T09:10:46;12.20;;;6.25;;
69736;SDS011;64476;55.004;73.342;2022-11-20T09:13:18;11.80;;;6.70;;
69736;SDS011;64476;55.004;73.342;2022-11-20T09:15:45;20.08;;;9.90;;
69736;SDS011;64476;55.004;73.342;2022-11-20T09:18:45;11.75;;;6.38;;
69736;SDS011;64476;55.004;73.342;2022-11-20T09:21:24;17.25;;;7.70;;
69736;SDS011;64476;55.004;73.342;2022-11-20T09:24:00;19.00;;;8.07;;
69736;SDS011;64476;55.004;73.342;2022-11-20T09:26:27;22.70;;;7.07;;
69736;SDS011;64476;55.004;73.342;2022-11-20T09:28:59;28.73;;;7.72;;
69736;SDS011;64476;55.004;73.342;2022-11-20T09:31:31;23.58;;;8.27;;
69736;SDS011;64476;55.004;73.342;2022-11-20T09:34:03;15.98;;;7.35;;
69736;SDS011;64476;55.004;73.342;2022-11-20T09:37:05;9.40;;;5.55;;
69736;SDS011;64476;55.004;73.342;2022-11-20T09:39:32;14.88;;;5.82;;
69736;SDS011;64476;55.004;73.342;2022-11-20T09:42:08;15.33;;;6.13;;
69736;SDS011;64476;55.004;73.342;2022-11-20T09:57:10;10.80;;;5.47;;
69736;SDS011;64476;55.004;73.342;2022-11-20T09:59:53;7.70;;;5.03;;
69736;SDS011;64476;55.004;73.342;2022-11-20T10:05:18;8.23;;;4.88;;
69736;SDS011;64476;55.004;73.342;2022-11-20T10:07:54;12.75;;;6.60;;
69736;SDS011;64476;55.004;73.342;2022-11-20T10:22:01;10.30;;;5.30;;
69736;SDS011;64476;55.004;73.342;2022-11-20T10:27:47;7.40;;;4.35;;
69736;SDS011;64476;55.004;73.342;2022-11-20T10:30:19;11.18;;;5.38;;
69736;SDS011;64476;55.004;73.342;2022-11-20T10:38:21;7.78;;;5.47;;
69736;SDS011;64476;55.004;73.342;2022-11-20T10:40:53;10.93;;;6.70;;
69736;SDS011;64476;55.004;73.342;2022-11-20T10:44:00;10.80;;;5.80;;
69736;SDS011;64476;55.004;73.342;2022-11-20T10:46:30;8.45;;;5.70;;
69736;SDS011;64476;55.004;73.342;2022-11-20T10:49:18;7.82;;;5.43;;
69736;SDS011;64476;55.004;73.342;2022-11-20T11:00:21;10.90;;;5.82;;
69736;SDS011;64476;55.004;73.342;2022-11-20T11:02:49;9.23;;;5.75;;
69736;SDS011;64476;55.004;73.342;2022-11-20T11:07:48;11.48;;;5.43;;
69736;SDS011;64476;55.004;73.342;2022-11-20T11:10:22;10.38;;;6.05;;
69736;SDS011;64476;55.004;73.342;2022-11-20T11:12:52;9.75;;;6.15;;
69736;SDS011;64476;55.004;73.342;2022-11-20T11:15:27;7.18;;;5.18;;
69736;SDS011;64476;55.004;73.342;2022-11-20T11:18:00;8.65;;;5.80;;
69736;SDS011;64476;55.004;73.342;2022-11-20T11:20:27;9.82;;;5.55;;
69736;SDS011;64476;55.004;73.342;2022-11-20T11:22:54;9.68;;;6.38;;
69736;SDS011;64476;55.004;73.342;2022-11-20T11:25:27;15.15;;;5.65;;
69736;SDS011;64476;55.004;73.342;2022-11-20T11:28:19;7.85;;;5.05;;
69736;SDS011;64476;55.004;73.342;2022-11-20T11:30:47;10.68;;;6.43;;
69736;SDS011;64476;55.004;73.342;2022-11-20T11:33:25;9.90;;;5.55;;
69736;SDS011;64476;55.004;73.342;2022-11-20T11:35:56;7.75;;;5.65;;
69736;SDS011;64476;55.004;73.342;2022-11-20T11:38:30;10.07;;;6.10;;
69736;SDS011;64476;55.004;73.342;2022-11-20T11:41:25;9.48;;;5.75;;
69736;SDS011;64476;55.004;73.342;2022-11-20T11:44:17;9.23;;;6.40;;
69736;SDS011;64476;55.004;73.342;2022-11-20T11:47:05;13.37;;;7.50;;
69736;SDS011;64476;55.004;73.342;2022-11-20T11:52:28;10.07;;;6.30;;
69736;SDS011;64476;55.004;73.342;2022-11-20T11:55:00;14.20;;;7.95;;
69736;SDS011;64476;55.004;73.342;2022-11-20T12:00:30;12.85;;;7.00;;
69736;SDS011;64476;55.004;73.342;2022-11-20T12:03:14;17.13;;;7.43;;
69736;SDS011;64476;55.004;73.342;2022-11-20T12:05:46;16.77;;;7.80;;
69736;SDS011;64476;55.004;73.342;2022-11-20T12:11:33;15.32;;;7.68;;
69736;SDS011;64476;55.004;73.342;2022-11-20T12:16:55;11.70;;;7.05;;
69736;SDS011;64476;55.004;73.342;2022-11-20T12:19:23;14.52;;;7.57;;
69736;SDS011;64476;55.004;73.342;2022-11-20T12:27:30;11.05;;;7.60;;
69736;SDS011;64476;55.004;73.342;2022-11-20T12:30:28;12.90;;;7.32;;
69736;SDS011;64476;55.004;73.342;2022-11-20T12:44:33;11.05;;;6.32;;
69736;SDS011;64476;55.004;73.342;2022-11-20T12:50:51;15.15;;;7.68;;
69736;SDS011;64476;55.004;73.342;2022-11-20T12:59:49;13.60;;;7.95;;
69736;SDS011;64476;55.004;73.342;2022-11-20T13:08:25;16.17;;;9.50;;
69736;SDS011;64476;55.004;73.342;2022-11-20T13:16:59;13.79;;;7.79;;
69736;SDS011;64476;55.004;73.342;2022-11-20T13:19:38;12.68;;;8.07;;
69736;SDS011;64476;55.004;73.342;2022-11-20T13:22:07;12.50;;;8.48;;
69736;SDS011;64476;55.004;73.342;2022-11-20T13:24:49;12.95;;;8.20;;
69736;SDS011;64476;55.004;73.342;2022-11-20T13:27:18;15.32;;;7.90;;
69736;SDS011;64476;55.004;73.342;2022-11-20T13:30:12;21.70;;;8.73;;
69736;SDS011;64476;55.004;73.342;2022-11-20T13:32:47;20.02;;;10.75;;
69736;SDS011;64476;55.004;73.342;2022-11-20T13:35:35;22.05;;;10.27;;
69736;SDS011;64476;55.004;73.342;2022-11-20T13:38:13;14.80;;;7.50;;
69736;SDS011;64476;55.004;73.342;2022-11-20T13:40:52;13.13;;;7.65;;
69736;SDS011;64476;55.004;73.342;2022-11-20T13:46:05;15.70;;;8.80;;
69736;SDS011;64476;55.004;73.342;2022-11-20T13:48:38;15.20;;;8.68;;
69736;SDS011;64476;55.004;73.342;2022-11-20T13:51:09;13.70;;;8.48;;
69736;SDS011;64476;55.004;73.342;2022-11-20T13:57:06;12.97;;;8.07;;
69736;SDS011;64476;55.004;73.342;2022-11-20T14:02:30;21.30;;;9.25;;
69736;SDS011;64476;55.004;73.342;2022-11-20T14:05:01;14.45;;;8.68;;
69736;SDS011;64476;55.004;73.342;2022-11-20T14:07:37;17.20;;;8.40;;
69736;SDS011;64476;55.004;73.342;2022-11-20T14:10:18;17.23;;;9.45;;
69736;SDS011;64476;55.004;73.342;2022-11-20T14:12:50;14.75;;;9.45;;
69736;SDS011;64476;55.004;73.342;2022-11-20T14:15:30;16.75;;;8.98;;
69736;SDS011;64476;55.004;73.342;2022-11-20T14:17:59;25.30;;;9.80;;
69736;SDS011;64476;55.004;73.342;2022-11-20T14:20:36;15.30;;;8.85;;
69736;SDS011;64476;55.004;73.342;2022-11-20T14:23:04;21.10;;;9.45;;
69736;SDS011;64476;55.004;73.342;2022-11-20T14:25:48;29.90;;;10.15;;
69736;SDS011;64476;55.004;73.342;2022-11-20T14:28:26;15.80;;;9.35;;
69736;SDS011;64476;55.004;73.342;2022-11-20T14:30:54;16.50;;;9.05;;
69736;SDS011;64476;55.004;73.342;2022-11-20T14:33:27;17.40;;;9.90;;
69736;SDS011;64476;55.004;73.342;2022-11-20T14:35:55;16.80;;;9.32;;
69736;SDS011;64476;55.004;73.342;2022-11-20T14:38:33;14.90;;;8.75;;
69736;SDS011;64476;55.004;73.342;2022-11-20T14:41:07;21.50;;;9.68;;
69736;SDS011;64476;55.004;73.342;2022-11-20T14:43:36;19.90;;;10.10;;
69736;SDS011;64476;55.004;73.342;2022-11-20T14:46:09;24.70;;;9.27;;
69736;SDS011;64476;55.004;73.342;2022-11-20T14:48:37;24.75;;;9.38;;
69736;SDS011;64476;55.004;73.342;2022-11-20T14:54:27;16.92;;;9.20;;
69736;SDS011;64476;55.004;73.342;2022-11-20T14:57:00;19.40;;;9.85;;
69736;SDS011;64476;55.004;73.342;2022-11-20T14:59:35;17.27;;;9.85;;
69736;SDS011;64476;55.004;73.342;2022-11-20T15:02:09;28.75;;;11.10;;
69736;SDS011;64476;55.004;73.342;2022-11-20T15:04:47;19.20;;;9.80;;
69736;SDS011;64476;55.004;73.342;2022-11-20T15:07:28;18.42;;;11.35;;
69736;SDS011;64476;55.004;73.342;2022-11-20T15:10:23;22.10;;;10.48;;
69736;SDS011;64476;55.004;73.342;2022-11-20T15:12:52;17.00;;;10.20;;
69736;SDS011;64476;55.004;73.342;2022-11-20T15:18:38;22.40;;;11.55;;
69736;SDS011;64476;55.004;73.342;2022-11-20T15:21:14;20.08;;;10.30;;
69736;SDS011;64476;55.004;73.342;2022-11-20T15:23:42;16.40;;;9.55;;
69736;SDS011;64476;55.004;73.342;2022-11-20T15:26:10;17.15;;;9.93;;
69736;SDS011;64476;55.004;73.342;2022-11-20T15:28:57;19.33;;;9.65;;
69736;SDS011;64476;55.004;73.342;2022-11-20T15:31:24;22.48;;;10.55;;
69736;SDS011;64476;55.004;73.342;2022-11-20T15:33:51;19.50;;;11.00;;
69736;SDS011;64476;55.004;73.342;2022-11-20T15:36:17;21.63;;;10.73;;
69736;SDS011;64476;55.004;73.342;2022-11-20T15:38:44;19.63;;;10.20;;
69736;SDS011;64476;55.004;73.342;2022-11-20T15:41:10;16.50;;;9.30;;
69736;SDS011;64476;55.004;73.342;2022-11-20T15:43:37;25.50;;;11.90;;
69736;SDS011;64476;55.004;73.342;2022-11-20T15:46:16;19.75;;;10.15;;
69736;SDS011;64476;55.004;73.342;2022-11-20T15:48:45;14.48;;;10.15;;
69736;SDS011;64476;55.004;73.342;2022-11-20T15:51:30;25.45;;;11.05;;
69736;SDS011;64476;55.004;73.342;2022-11-20T15:53:59;19.15;;;9.57;;
69736;SDS011;64476;55.004;73.342;2022-11-20T15:56:27;21.08;;;10.50;;
69736;SDS011;64476;55.004;73.342;2022-11-20T15:58:54;21.80;;;10.27;;
69736;SDS011;64476;55.004;73.342;2022-11-20T16:01:21;23.35;;;10.55;;
69736;SDS011;64476;55.004;73.342;2022-11-20T16:03:48;24.15;;;11.40;;
69736;SDS011;64476;55.004;73.342;2022-11-20T16:06:14;21.75;;;11.07;;
69736;SDS011;64476;55.004;73.342;2022-11-20T16:08:42;18.17;;;10.60;;
69736;SDS011;64476;55.004;73.342;2022-11-20T16:11:18;24.83;;;12.07;;
69736;SDS011;64476;55.004;73.342;2022-11-20T16:13:45;23.50;;;10.85;;
69736;SDS011;64476;55.004;73.342;2022-11-20T16:16:33;20.50;;;10.93;;
69736;SDS011;64476;55.004;73.342;2022-11-20T16:19:10;24.13;;;11.77;;
69736;SDS011;64476;55.004;73.342;2022-11-20T16:21:37;20.10;;;10.65;;
69736;SDS011;64476;55.004;73.342;2022-11-20T16:24:08;20.95;;;11.93;;
69736;SDS011;64476;55.004;73.342;2022-11-20T16:26:41;23.77;;;12.30;;
69736;SDS011;64476;55.004;73.342;2022-11-20T16:29:08;27.67;;;12.38;;
69736;SDS011;64476;55.004;73.342;2022-11-20T16:31:35;22.58;;;10.90;;
69736;SDS011;64476;55.004;73.342;2022-11-20T16:34:03;25.92;;;10.30;;
69736;SDS011;64476;55.004;73.342;2022-11-20T16:36:35;21.55;;;10.95;;
69736;SDS011;64476;55.004;73.342;2022-11-20T16:39:05;22.75;;;10.48;;
69736;SDS011;64476;55.004;73.342;2022-11-20T16:41:32;18.58;;;9.80;;
69736;SDS011;64476;55.004;73.342;2022-11-20T16:44:11;22.10;;;10.77;;
69736;SDS011;64476;55.004;73.342;2022-11-20T16:46:37;20.33;;;10.98;;
69736;SDS011;64476;55.004;73.342;2022-11-20T16:49:10;26.60;;;10.82;;
69736;SDS011;64476;55.004;73.342;2022-11-20T16:51:38;20.98;;;10.52;;
69736;SDS011;64476;55.004;73.342;2022-11-20T16:54:06;21.98;;;11.50;;
69736;SDS011;64476;55.004;73.342;2022-11-20T16:56:34;22.98;;;9.00;;
69736;SDS011;64476;55.004;73.342;2022-11-20T16:59:01;17.77;;;9.18;;
69736;SDS011;64476;55.004;73.342;2022-11-20T17:01:30;19.05;;;10.15;;
69736;SDS011;64476;55.004;73.342;2022-11-20T17:04:01;20.52;;;9.02;;
69736;SDS011;64476;55.004;73.342;2022-11-20T17:06:31;17.70;;;10.02;;
69736;SDS011;64476;55.004;73.342;2022-11-20T17:09:00;19.33;;;9.93;;
69736;SDS011;64476;55.004;73.342;2022-11-20T17:11:27;20.02;;;9.27;;
69736;SDS011;64476;55.004;73.342;2022-11-20T17:13:54;14.95;;;9.27;;
69736;SDS011;64476;55.004;73.342;2022-11-20T17:16:22;12.73;;;8.30;;
69736;SDS011;64476;55.004;73.342;2022-11-20T17:19:04;19.60;;;10.07;;
69736;SDS011;64476;55.004;73.342;2022-11-20T17:21:31;18.05;;;9.18;;
69736;SDS011;64476;55.004;73.342;2022-11-20T17:24:01;14.85;;;8.82;;
69736;SDS011;64476;55.004;73.342;2022-11-20T17:26:38;17.60;;;8.93;;
69736;SDS011;64476;55.004;73.342;2022-11-20T17:29:08;25.20;;;9.70;;
69736;SDS011;64476;55.004;73.342;2022-11-20T17:31:40;18.92;;;9.70;;
69736;SDS011;64476;55.004;73.342;2022-11-20T17:34:14;17.83;;;9.10;;
69736;SDS011;64476;55.004;73.342;2022-11-20T17:36:55;19.30;;;8.53;;
69736;SDS011;64476;55.004;73.342;2022-11-20T17:39:21;40.40;;;9.35;;
69736;SDS011;64476;55.004;73.342;2022-11-20T17:41:54;18.10;;;8.60;;
69736;SDS011;64476;55.004;73.342;2022-11-20T17:44:39;20.10;;;9.27;;
69736;SDS011;64476;55.004;73.342;2022-11-20T17:47:12;20.00;;;8.63;;
69736;SDS011;64476;55.004;73.342;2022-11-20T17:49:43;24.95;;;10.77;;
69736;SDS011;64476;55.004;73.342;2022-11-20T17:52:10;18.80;;;11.30;;
69736;SDS011;64476;55.004;73.342;2022-11-20T17:54:36;15.55;;;9.55;;
69736;SDS011;64476;55.004;73.342;2022-11-20T17:57:03;22.17;;;10.30;;
69736;SDS011;64476;55.004;73.342;2022-11-20T17:59:49;17.73;;;9.55;;
69736;SDS011;64476;55.004;73.342;2022-11-20T18:02:16;18.73;;;9.70;;
69736;SDS011;64476;55.004;73.342;2022-11-20T18:04:42;14.63;;;8.27;;
69736;SDS011;64476;55.004;73.342;2022-11-20T18:07:11;18.15;;;9.48;;
69736;SDS011;64476;55.004;73.342;2022-11-20T18:09:39;21.10;;;9.95;;
69736;SDS011;64476;55.004;73.342;2022-11-20T18:12:05;16.02;;;9.60;;
69736;SDS011;64476;55.004;73.342;2022-11-20T18:14:41;11.43;;;8.55;;
69736;SDS011;64476;55.004;73.342;2022-11-20T18:19:37;17.65;;;9.63;;
69736;SDS011;64476;55.004;73.342;2022-11-20T18:22:09;23.52;;;10.65;;
69736;SDS011;64476;55.004;73.342;2022-11-20T18:24:36;15.52;;;9.13;;
69736;SDS011;64476;55.004;73.342;2022-11-20T18:27:11;21.42;;;9.85;;
69736;SDS011;64476;55.004;73.342;2022-11-20T18:29:40;19.98;;;9.23;;
69736;SDS011;64476;55.004;73.342;2022-11-20T18:32:09;15.32;;;9.50;;
69736;SDS011;64476;55.004;73.342;2022-11-20T18:34:39;15.85;;;9.15;;
69736;SDS011;64476;55.004;73.342;2022-11-20T18:37:05;23.13;;;10.60;;
69736;SDS011;64476;55.004;73.342;2022-11-20T18:39:34;19.17;;;10.18;;
69736;SDS011;64476;55.004;73.342;2022-11-20T18:42:01;19.67;;;11.00;;
69736;SDS011;64476;55.004;73.342;2022-11-20T18:44:46;16.10;;;9.25;;
69736;SDS011;64476;55.004;73.342;2022-11-20T18:47:29;19.27;;;9.68;;
69736;SDS011;64476;55.004;73.342;2022-11-20T18:49:59;20.58;;;11.10;;
69736;SDS011;64476;55.004;73.342;2022-11-20T18:52:30;16.88;;;9.90;;
69736;SDS011;64476;55.004;73.342;2022-11-20T18:55:04;21.55;;;10.52;;
69736;SDS011;64476;55.004;73.342;2022-11-20T18:57:33;22.42;;;10.77;;
69736;SDS011;64476;55.004;73.342;2022-11-20T19:00:00;20.77;;;9.57;;
69736;SDS011;64476;55.004;73.342;2022-11-20T19:02:27;27.02;;;10.00;;
69736;SDS011;64476;55.004;73.342;2022-11-20T19:04:54;15.40;;;9.25;;
69736;SDS011;64476;55.004;73.342;2022-11-20T19:07:30;18.53;;;10.00;;
69736;SDS011;64476;55.004;73.342;2022-11-20T19:09:57;20.08;;;10.38;;
69736;SDS011;64476;55.004;73.342;2022-11-20T19:12:23;19.80;;;10.25;;
69736;SDS011;64476;55.004;73.342;2022-11-20T19:14:55;18.35;;;9.70;;
69736;SDS011;64476;55.004;73.342;2022-11-20T19:17:22;19.90;;;10.18;;
69736;SDS011;64476;55.004;73.342;2022-11-20T19:19:49;21.85;;;11.00;;
69736;SDS011;64476;55.004;73.342;2022-11-20T19:22:15;18.03;;;10.03;;
69736;SDS011;64476;55.004;73.342;2022-11-20T19:24:42;24.63;;;10.85;;
69736;SDS011;64476;55.004;73.342;2022-11-20T19:27:08;14.48;;;9.57;;
69736;SDS011;64476;55.004;73.342;2022-11-20T19:29:35;15.68;;;9.80;;
69736;SDS011;64476;55.004;73.342;2022-11-20T19:32:01;20.67;;;10.07;;
69736;SDS011;64476;55.004;73.342;2022-11-20T19:34:34;21.88;;;10.38;;
69736;SDS011;64476;55.004;73.342;2022-11-20T19:37:04;30.33;;;11.47;;
69736;SDS011;64476;55.004;73.342;2022-11-20T19:39:32;21.45;;;11.15;;
69736;SDS011;64476;55.004;73.342;2022-11-20T19:42:00;19.23;;;10.73;;
69736;SDS011;64476;55.004;73.342;2022-11-20T19:44:27;19.65;;;10.25;;
69736;SDS011;64476;55.004;73.342;2022-11-20T19:47:03;15.90;;;10.05;;
69736;SDS011;64476;55.004;73.342;2022-11-20T19:49:30;26.73;;;10.77;;
69736;SDS011;64476;55.004;73.342;2022-11-20T19:51:56;20.35;;;9.55;;
69736;SDS011;64476;55.004;73.342;2022-11-20T19:54:25;18.75;;;10.07;;
69736;SDS011;64476;55.004;73.342;2022-11-20T19:56:54;17.90;;;10.80;;
69736;SDS011;64476;55.004;73.342;2022-11-20T19:59:21;13.88;;;9.52;;
69736;SDS011;64476;55.004;73.342;2022-11-20T20:01:57;22.90;;;10.10;;
69736;SDS011;64476;55.004;73.342;2022-11-20T20:04:24;18.20;;;10.00;;
69736;SDS011;64476;55.004;73.342;2022-11-20T20:06:54;21.00;;;10.40;;
69736;SDS011;64476;55.004;73.342;2022-11-20T20:09:21;16.73;;;10.50;;
69736;SDS011;64476;55.004;73.342;2022-11-20T20:11:55;18.70;;;10.00;;
69736;SDS011;64476;55.004;73.342;2022-11-20T20:14:21;18.15;;;10.02;;
69736;SDS011;64476;55.004;73.342;2022-11-20T20:16:54;19.95;;;10.30;;
69736;SDS011;64476;55.004;73.342;2022-11-20T20:19:31;18.45;;;9.95;;
69736;SDS011;64476;55.004;73.342;2022-11-20T20:21:57;19.12;;;10.90;;
69736;SDS011;64476;55.004;73.342;2022-11-20T20:25:04;23.55;;;10.00;;
69736;SDS011;64476;55.004;73.342;2022-11-20T20:27:32;28.48;;;9.70;;
69736;SDS011;64476;55.004;73.342;2022-11-20T20:29:59;27.85;;;11.60;;
69736;SDS011;64476;55.004;73.342;2022-11-20T20:32:25;21.73;;;10.35;;
69736;SDS011;64476;55.004;73.342;2022-11-20T20:34:51;18.27;;;8.32;;
69736;SDS011;64476;55.004;73.342;2022-11-20T20:37:18;20.17;;;9.60;;
69736;SDS011;64476;55.004;73.342;2022-11-20T20:39:54;20.00;;;9.73;;
69736;SDS011;64476;55.004;73.342;2022-11-20T20:42:22;15.73;;;8.75;;
69736;SDS011;64476;55.004;73.342;2022-11-20T20:44:53;15.40;;;8.57;;
69736;SDS011;64476;55.004;73.342;2022-11-20T20:47:35;13.90;;;8.60;;
69736;SDS011;64476;55.004;73.342;2022-11-20T20:50:04;20.05;;;9.90;;
69736;SDS011;64476;55.004;73.342;2022-11-20T20:52:43;15.18;;;9.05;;
69736;SDS011;64476;55.004;73.342;2022-11-20T20:55:11;19.67;;;9.57;;
69736;SDS011;64476;55.004;73.342;2022-11-20T20:57:37;17.95;;;8.77;;
69736;SDS011;64476;55.004;73.342;2022-11-20T21:00:09;19.08;;;9.13;;
69736;SDS011;64476;55.004;73.342;2022-11-20T21:02:45;15.23;;;8.75;;
69736;SDS011;64476;55.004;73.342;2022-11-20T21:05:16;16.08;;;8.55;;
69736;SDS011;64476;55.004;73.342;2022-11-20T21:07:53;18.75;;;9.30;;
69736;SDS011;64476;55.004;73.342;2022-11-20T21:10:38;15.82;;;9.63;;
69736;SDS011;64476;55.004;73.342;2022-11-20T21:13:10;16.95;;;8.32;;
69736;SDS011;64476;55.004;73.342;2022-11-20T21:15:39;19.98;;;9.32;;
69736;SDS011;64476;55.004;73.342;2022-11-20T21:18:17;16.52;;;8.23;;
69736;SDS011;64476;55.004;73.342;2022-11-20T21:20:51;15.48;;;8.82;;
69736;SDS011;64476;55.004;73.342;2022-11-20T21:23:46;20.17;;;10.15;;
69736;SDS011;64476;55.004;73.342;2022-11-20T21:26:23;18.77;;;9.07;;
69736;SDS011;64476;55.004;73.342;2022-11-20T21:28:49;15.60;;;9.80;;
69736;SDS011;64476;55.004;73.342;2022-11-20T21:31:17;14.32;;;8.30;;
69736;SDS011;64476;55.004;73.342;2022-11-20T21:33:55;20.70;;;9.32;;
69736;SDS011;64476;55.004;73.342;2022-11-20T21:36:54;27.50;;;11.38;;
69736;SDS011;64476;55.004;73.342;2022-11-20T21:39:53;31.17;;;10.05;;
69736;SDS011;64476;55.004;73.342;2022-11-20T21:42:24;23.27;;;9.45;;
69736;SDS011;64476;55.004;73.342;2022-11-20T21:44:51;21.45;;;9.73;;
69736;SDS011;64476;55.004;73.342;2022-11-20T21:47:33;14.80;;;8.88;;
69736;SDS011;64476;55.004;73.342;2022-11-20T21:50:09;19.80;;;9.43;;
69736;SDS011;64476;55.004;73.342;2022-11-20T21:52:41;14.73;;;8.55;;
69736;SDS011;64476;55.004;73.342;2022-11-20T21:55:08;13.45;;;7.65;;
69736;SDS011;64476;55.004;73.342;2022-11-20T21:57:39;12.97;;;8.20;;
69736;SDS011;64476;55.004;73.342;2022-11-20T22:00:10;20.75;;;9.68;;
69736;SDS011;64476;55.004;73.342;2022-11-20T22:02:46;16.92;;;8.75;;
69736;SDS011;64476;55.004;73.342;2022-11-20T22:05:13;18.23;;;9.88;;
69736;SDS011;64476;55.004;73.342;2022-11-20T22:07:49;25.80;;;10.43;;
69736;SDS011;64476;55.004;73.342;2022-11-20T22:10:26;16.85;;;9.23;;
69736;SDS011;64476;55.004;73.342;2022-11-20T22:12:52;17.75;;;10.60;;
69736;SDS011;64476;55.004;73.342;2022-11-20T22:15:52;23.98;;;9.57;;
69736;SDS011;64476;55.004;73.342;2022-11-20T22:18:29;15.77;;;8.27;;
69736;SDS011;64476;55.004;73.342;2022-11-20T22:21:06;16.95;;;9.07;;
69736;SDS011;64476;55.004;73.342;2022-11-20T22:23:32;23.90;;;8.65;;
69736;SDS011;64476;55.004;73.342;2022-11-20T22:26:10;19.52;;;8.90;;
69736;SDS011;64476;55.004;73.342;2022-11-20T22:28:40;16.33;;;8.57;;
69736;SDS011;64476;55.004;73.342;2022-11-20T22:31:12;16.77;;;9.02;;
69736;SDS011;64476;55.004;73.342;2022-11-20T22:33:43;19.17;;;8.37;;
69736;SDS011;64476;55.004;73.342;2022-11-20T22:36:12;18.95;;;9.85;;
69736;SDS011;64476;55.004;73.342;2022-11-20T22:38:49;14.77;;;8.73;;
69736;SDS011;64476;55.004;73.342;2022-11-20T22:41:25;14.60;;;8.18;;
69736;SDS011;64476;55.004;73.342;2022-11-20T22:43:54;14.05;;;8.77;;
69736;SDS011;64476;55.004;73.342;2022-11-20T22:46:22;15.85;;;8.93;;
69736;SDS011;64476;55.004;73.342;2022-11-20T22:48:55;15.80;;;8.87;;
69736;SDS011;64476;55.004;73.342;2022-11-20T22:51:27;13.75;;;8.02;;
69736;SDS011;64476;55.004;73.342;2022-11-20T22:53:58;15.00;;;8.07;;
69736;SDS011;64476;55.004;73.342;2022-11-20T22:56:25;15.88;;;8.57;;
69736;SDS011;64476;55.004;73.342;2022-11-20T22:58:52;18.33;;;8.73;;
69736;SDS011;64476;55.004;73.342;2022-11-20T23:03:53;15.45;;;8.90;;
69736;SDS011;64476;55.004;73.342;2022-11-20T23:06:24;14.55;;;8.15;;
69736;SDS011;64476;55.004;73.342;2022-11-20T23:08:52;14.60;;;8.65;;
69736;SDS011;64476;55.004;73.342;2022-11-20T23:11:29;13.23;;;8.10;;
69736;SDS011;64476;55.004;73.342;2022-11-20T23:16:35;18.88;;;8.43;;
69736;SDS011;64476;55.004;73.342;2022-11-20T23:19:03;18.55;;;9.13;;
69736;SDS011;64476;55.004;73.342;2022-11-20T23:21:34;17.38;;;8.20;;
69736;SDS011;64476;55.004;73.342;2022-11-20T23:24:09;16.60;;;8.48;;
69736;SDS011;64476;55.004;73.342;2022-11-20T23:26:37;15.77;;;8.57;;
69736;SDS011;64476;55.004;73.342;2022-11-20T23:29:04;17.13;;;8.45;;
69736;SDS011;64476;55.004;73.342;2022-11-20T23:31:32;15.15;;;8.38;;
69736;SDS011;64476;55.004;73.342;2022-11-20T23:34:00;17.98;;;7.95;;
69736;SDS011;64476;55.004;73.342;2022-11-20T23:36:26;20.50;;;9.00;;
69736;SDS011;64476;55.004;73.342;2022-11-20T23:39:02;11.30;;;7.63;;
69736;SDS011;64476;55.004;73.342;2022-11-20T23:41:39;15.10;;;8.57;;
69736;SDS011;64476;55.004;73.342;2022-11-20T23:44:05;13.15;;;8.57;;
69736;SDS011;64476;55.004;73.342;2022-11-20T23:46:33;13.57;;;8.38;;
69736;SDS011;64476;55.004;73.342;2022-11-20T23:49:00;18.95;;;9.18;;
69736;SDS011;64476;55.004;73.342;2022-11-20T23:51:26;19.00;;;9.50;;
69736;SDS011;64476;55.004;73.342;2022-11-20T23:53:53;22.42;;;10.73;;
69736;SDS011;64476;55.004;73.342;2022-11-20T23:56:22;14.43;;;8.52;;
69736;SDS011;64476;55.004;73.342;2022-11-20T23:58:49;20.08;;;9.13;;
